Time;durP1;ratioP1;P1;durP2;ratioP2;P2;SDS_P1;SDS_P2;PMS_P1;PMS_P2;Temp;Humidity;BMP_temperature;BMP_pressure;BME280_temperature;BME280_humidity;BME280_pressure;Samples;Min_cycle;Max_cycle;Signal;HPM_P1;HPM_P2
2022/04/24 00:02:58;;;;;;;58.20;29.37;;;;;;;8.76;74.49;99947.98;5200452;56;1134781;-71
2022/04/24 00:08:05;;;;;;;62.43;31.43;;;;;;;8.69;74.45;99938.42;5248616;56;1134857;-76
2022/04/24 00:13:11;;;;;;;51.97;27.23;;;;;;;8.55;74.11;99942.63;5217036;56;1134825;-73
2022/04/24 00:18:17;;;;;;;51.97;22.20;;;;;;;8.41;74.52;99938.88;5161862;57;1135036;-72
2022/04/24 00:23:23;;;;;;;35.43;18.30;;;;;;;8.33;74.70;99931.58;5161639;57;1136936;-72
2022/04/24 00:28:29;;;;;;;35.07;17.37;;;;;;;8.36;75.01;99927.88;5161690;57;1136966;-73
2022/04/24 00:33:34;;;;;;;35.60;18.40;;;;;;;8.33;74.89;99932.06;5161841;57;1136882;-75
2022/04/24 00:38:41;;;;;;;35.57;19.10;;;;;;;8.11;74.72;99919.19;5161607;57;1136924;-75
2022/04/24 00:43:54;;;;;;;36.67;19.83;;;;;;;8.07;75.57;99915.14;5161821;57;1134822;-74
2022/04/24 00:49:15;;;;;;;33.43;17.90;;;;;;;7.97;75.61;99913.30;5220973;56;1132966;-72
2022/04/24 00:54:21;;;;;;;45.50;23.50;;;;;;;7.64;75.48;99911.42;5187580;56;1132785;-70
2022/04/24 00:59:26;;;;;;;58.90;26.13;;;;;;;7.36;76.00;99903.44;5268483;56;21104;-73
2022/04/24 01:04:34;;;;;;;58.77;27.80;;;;;;;7.12;76.72;99908.73;5248512;56;1132679;-74
2022/04/24 01:10:00;;;;;;;72.35;31.87;;;;;;;7.11;77.59;99897.00;5248109;56;1136914;-73
2022/04/24 01:15:07;;;;;;;68.17;32.43;;;;;;;7.16;77.73;99899.67;5183694;56;1136852;-72
2022/04/24 01:20:14;;;;;;;72.47;31.63;;;;;;;7.05;77.42;99904.85;5161645;57;1136925;-75
2022/04/24 01:25:21;;;;;;;39.27;18.97;;;;;;;6.97;78.10;99904.11;5161415;57;1138980;-75
2022/04/24 01:30:28;;;;;;;37.37;18.70;;;;;;;7.13;78.93;99893.31;5161483;57;1138430;-73
2022/04/24 01:35:35;;;;;;;40.20;21.60;;;;;;;7.24;78.64;99890.72;5161487;57;1139049;-74
2022/04/24 01:40:41;;;;;;;41.70;22.07;;;;;;;7.20;78.11;99884.00;5161539;57;1136917;-75
2022/04/24 01:45:47;;;;;;;47.73;20.63;;;;;;;7.24;78.76;99889.89;5169345;56;1136930;-75
2022/04/24 01:50:56;;;;;;;47.03;22.43;;;;;;;7.21;78.35;99890.10;5241703;56;1136875;-74
2022/04/24 01:56:05;;;;;;;49.20;24.67;;;;;;;7.10;77.83;99885.64;5248226;56;1136892;-72
2022/04/24 02:01:11;;;;;;;66.30;30.13;;;;;;;6.75;77.56;99888.19;5248228;56;1136932;-74
2022/04/24 02:06:17;;;;;;;80.67;36.20;;;;;;;6.43;78.19;99900.14;5248004;56;1137006;-73
2022/04/24 02:11:22;;;;;;;83.60;36.13;;;;;;;6.33;78.91;99886.36;5247788;56;1136406;-73
2022/04/24 02:16:28;;;;;;;57.83;25.53;;;;;;;6.35;79.40;99892.82;5161444;57;1136947;-72
2022/04/24 02:21:34;;;;;;;61.10;26.10;;;;;;;6.50;80.13;99885.64;5161411;57;1136936;-70
2022/04/24 02:26:40;;;;;;;38.27;21.43;;;;;;;6.55;79.07;99884.38;5161324;57;1139009;-73
2022/04/24 02:31:46;;;;;;;40.87;21.43;;;;;;;6.63;79.77;99886.45;5161368;57;1138983;-72
2022/04/24 02:36:52;;;;;;;54.80;23.40;;;;;;;6.66;79.65;99887.55;5161321;57;1136934;-71
2022/04/24 02:41:58;;;;;;;51.63;24.43;;;;;;;6.68;79.35;99888.28;5161313;57;1137079;-75
2022/04/24 02:47:04;;;;;;;41.70;22.10;;;;;;;6.68;79.41;99886.97;5191534;56;1136910;-74
2022/04/24 02:52:10;;;;;;;45.77;24.43;;;;;;;6.65;79.22;99889.81;5189434;56;1136939;-74
2022/04/24 02:57:15;;;;;;;46.83;23.37;;;;;;;6.53;78.72;99881.49;5161953;57;1137103;-76
2022/04/24 03:02:21;;;;;;;59.50;26.87;;;;;;;6.27;78.49;99888.09;5162120;57;1136967;-73
2022/04/24 03:07:27;;;;;;;48.53;24.13;;;;;;;6.08;79.09;99877.21;5157482;57;1136941;-71
2022/04/24 03:12:33;;;;;;;50.80;23.40;;;;;;;6.07;79.63;99873.38;5158318;57;1136971;-73
2022/04/24 03:17:40;;;;;;;46.73;20.30;;;;;;;6.09;80.13;99878.05;5164233;57;1138990;-74
2022/04/24 03:22:45;;;;;;;44.60;21.93;;;;;;;6.15;80.48;99867.94;5164168;57;1139016;-77
2022/04/24 03:27:51;;;;;;;34.03;19.37;;;;;;;6.22;80.49;99872.31;5164190;57;1136931;-77
2022/04/24 03:32:57;;;;;;;55.27;23.70;;;;;;;6.25;80.38;99869.00;5164291;57;1136914;-69
2022/04/24 03:38:04;;;;;;;47.07;22.13;;;;;;;6.24;80.27;99861.23;5164193;57;1136908;-77
2022/04/24 03:43:10;;;;;;;24.57;14.20;;;;;;;6.18;79.93;99866.89;5164276;57;1136813;-71
2022/04/24 03:48:15;;;;;;;27.70;15.20;;;;;;;5.94;79.46;99870.29;5164135;57;1136922;-76
2022/04/24 03:53:21;;;;;;;27.13;16.73;;;;;;;5.66;79.33;99871.27;5150460;57;1136958;-74
2022/04/24 03:58:27;;;;;;;36.73;19.30;;;;;;;5.44;79.74;99870.21;5164228;57;1135076;-72
2022/04/24 04:03:32;;;;;;;31.47;16.67;;;;;;;5.37;80.85;99867.61;5163716;57;1134830;-76
2022/04/24 04:08:38;;;;;;;39.13;17.00;;;;;;;5.48;81.53;99861.20;5162333;57;1134942;-76
2022/04/24 04:13:44;;;;;;;35.63;17.43;;;;;;;5.65;81.43;99860.91;5217737;56;1137166;-74
2022/04/24 04:18:50;;;;;;;41.17;19.67;;;;;;;5.78;81.52;99861.75;5205310;56;1137059;-76
2022/04/24 04:23:55;;;;;;;36.63;17.27;;;;;;;5.86;81.63;99854.66;5204157;56;1134918;-78
2022/04/24 04:29:01;;;;;;;34.60;18.13;;;;;;;5.83;81.18;99852.23;5190969;56;1135175;-76
2022/04/24 04:34:07;;;;;;;38.70;17.47;;;;;;;5.88;82.25;99847.52;5193398;56;1134907;-75
2022/04/24 04:39:13;;;;;;;28.07;14.77;;;;;;;5.93;82.83;99844.15;5185485;56;1134858;-73
2022/04/24 04:44:19;;;;;;;36.40;17.10;;;;;;;6.01;83.44;99833.94;5186367;56;1134798;-72
2022/04/24 04:49:25;;;;;;;39.07;18.23;;;;;;;5.81;82.71;99833.97;5225495;56;1135164;-77
2022/04/24 04:54:30;;;;;;;41.47;20.00;;;;;;;5.61;82.98;99833.20;5205806;56;1134767;-73
2022/04/24 04:59:36;;;;;;;39.17;17.43;;;;;;;5.51;83.54;99823.78;5209864;56;1137200;-73
2022/04/24 05:04:48;;;;;;;20.17;12.57;;;;;;;5.58;84.86;99821.13;5197383;56;1136919;-73
2022/04/24 05:09:50;;;;;;;19.30;10.77;;;;;;;5.74;86.87;99807.80;5192328;56;1136929;-76
2022/04/24 05:15:01;;;;;;;14.53;10.57;;;;;;;6.02;88.76;99821.66;5215722;56;1135026;-72
2022/04/24 05:20:10;;;;;;;22.23;10.70;;;;;;;6.17;88.56;99812.23;5185901;56;1134916;-76
2022/04/24 05:25:16;;;;;;;18.03;11.23;;;;;;;6.33;88.97;99810.67;5181128;56;1132920;-74
2022/04/24 05:30:24;;;;;;;15.30;9.60;;;;;;;6.59;89.69;99813.56;5248387;56;1138841;-74
2022/04/24 05:35:30;;;;;;;21.73;11.13;;;;;;;6.96;90.15;99818.30;5224455;56;1136868;-72
2022/04/24 05:40:36;;;;;;;16.77;9.90;;;;;;;7.22;89.96;99815.04;5161250;56;1138984;-75
2022/04/24 05:45:42;;;;;;;27.60;10.67;;;;;;;7.50;89.52;99827.42;5196044;56;1136885;-74
2022/04/24 05:50:48;;;;;;;21.60;10.33;;;;;;;7.76;89.16;99822.34;5237285;56;1136762;-78
2022/04/24 05:55:53;;;;;;;15.10;9.87;;;;;;;7.98;88.56;99816.23;5248043;56;1137005;-75
2022/04/24 06:00:59;;;;;;;16.73;10.13;;;;;;;8.31;88.75;99820.17;5203273;56;1137087;-75
2022/04/24 06:06:05;;;;;;;19.60;10.10;;;;;;;8.62;87.81;99817.27;5160983;56;1138971;-72
2022/04/24 06:11:11;;;;;;;20.10;10.30;;;;;;;8.87;87.03;99814.79;5224676;56;1138856;-74
2022/04/24 06:16:17;;;;;;;13.27;9.83;;;;;;;9.06;85.97;99815.45;5211094;56;1139012;-76
2022/04/24 06:21:23;;;;;;;13.77;9.63;;;;;;;9.22;84.92;99818.49;5239722;56;1136824;-74
2022/04/24 06:26:31;;;;;;;19.57;9.83;;;;;;;9.38;84.58;99823.33;5248692;56;1136300;-74
2022/04/24 06:31:36;;;;;;;18.03;10.27;;;;;;;9.59;84.72;99833.89;5248636;56;1136881;-77
2022/04/24 06:36:42;;;;;;;17.63;8.77;;;;;;;9.81;83.96;99831.93;5248905;56;1138997;-72
2022/04/24 06:41:48;;;;;;;15.87;9.13;;;;;;;9.99;84.42;99834.80;5248626;56;1136889;-75
2022/04/24 06:46:55;;;;;;;18.60;10.60;;;;;;;10.19;83.66;99830.48;5247494;56;1136868;-75
2022/04/24 06:52:01;;;;;;;15.13;9.77;;;;;;;10.36;83.98;99832.98;5185564;56;1141028;-74
2022/04/24 06:57:07;;;;;;;16.87;10.47;;;;;;;10.63;84.16;99829.22;5167787;56;1138989;-74
2022/04/24 07:02:13;;;;;;;13.57;9.43;;;;;;;10.80;82.76;99835.17;5167451;56;1141107;-75
2022/04/24 07:07:19;;;;;;;18.10;9.73;;;;;;;11.03;82.28;99827.80;5161704;57;1139019;-76
2022/04/24 07:12:24;;;;;;;19.03;10.60;;;;;;;11.23;83.08;99818.05;5161719;57;1138978;-76
2022/04/24 07:17:30;;;;;;;16.67;9.83;;;;;;;11.45;82.41;99811.63;5171892;56;1141088;-77
2022/04/24 07:22:48;;;;;;;20.20;11.22;;;;;;;11.76;82.85;99802.53;5248295;56;1138911;-72
2022/04/24 07:27:55;;;;;;;25.07;12.17;;;;;;;11.96;81.31;99796.66;5192824;56;1141094;-73
2022/04/24 07:33:03;;;;;;;14.20;9.57;;;;;;;12.18;82.29;99794.14;5168456;56;1141139;-74
2022/04/24 07:38:09;;;;;;;19.30;10.63;;;;;;;12.47;80.93;99797.95;5183867;56;1139198;-74
2022/04/24 07:43:15;;;;;;;18.40;10.10;;;;;;;12.68;80.04;99786.56;5178736;56;1140999;-75
2022/04/24 07:48:20;;;;;;;10.60;7.37;;;;;;;12.94;80.73;99788.00;5177949;56;1141362;-75
2022/04/24 07:53:26;;;;;;;11.43;7.80;;;;;;;13.13;78.24;99779.05;5172654;56;1138938;-72
2022/04/24 07:58:32;;;;;;;18.73;8.87;;;;;;;13.21;78.00;99773.33;5166017;56;1138868;-73
2022/04/24 08:03:39;;;;;;;14.50;8.53;;;;;;;13.32;77.18;99774.89;5167458;55;1139200;-73
2022/04/24 08:08:44;;;;;;;15.37;8.57;;;;;;;13.54;77.99;99769.09;5233048;56;1139080;-74
2022/04/24 08:13:50;;;;;;;10.00;6.00;;;;;;;13.80;73.59;99766.91;5227693;56;1138994;-73
2022/04/24 08:19:00;;;;;;;10.00;6.77;;;;;;;13.99;74.36;99757.37;5168494;56;1138901;-73
2022/04/24 08:24:04;;;;;;;13.60;7.83;;;;;;;14.17;73.07;99755.95;5209477;56;1138954;-73
2022/04/24 08:29:10;;;;;;;14.63;7.80;;;;;;;14.27;74.58;99756.15;5161272;56;1139124;-76
2022/04/24 08:34:16;;;;;;;11.63;6.77;;;;;;;14.40;70.21;99742.41;5161856;56;1139134;-75
2022/04/24 08:39:21;;;;;;;9.07;6.23;;;;;;;14.39;69.15;99752.69;5184657;56;1136964;-71
2022/04/24 08:44:29;;;;;;;8.80;6.13;;;;;;;14.45;70.40;99738.78;5170460;56;1134763;-72
2022/04/24 08:49:35;;;;;;;6.17;5.47;;;;;;;14.65;70.18;99744.16;5161745;57;1134826;-75
2022/04/24 08:54:43;;;;;;;9.67;4.77;;;;;;;14.78;69.29;99741.00;5161656;57;1134844;-76
2022/04/24 08:59:49;;;;;;;14.70;6.00;;;;;;;15.00;69.89;99732.84;5161665;57;1134850;-74
2022/04/24 09:04:55;;;;;;;8.80;5.50;;;;;;;15.17;69.19;99728.34;5178435;56;1137144;-74
2022/04/24 09:10:11;;;;;;;10.93;5.30;;;;;;;15.36;68.32;99726.67;5177057;56;1135391;-76
2022/04/24 09:15:18;;;;;;;7.03;4.80;;;;;;;15.46;68.27;99720.64;5191752;56;1136877;-78
2022/04/24 09:20:24;;;;;;;11.60;7.83;;;;;;;15.59;67.03;99719.64;5242326;56;1134849;-76
2022/04/24 09:25:42;;;;;;;9.30;4.97;;;;;;;15.82;67.57;99720.59;5242264;56;1137299;-78
2022/04/24 09:30:51;;;;;;;13.27;8.00;;;;;;;15.98;65.15;99717.03;5242290;56;1134989;-79
2022/04/24 09:35:57;;;;;;;8.27;6.30;;;;;;;16.05;62.44;99725.15;5242381;56;1137159;-73
2022/04/24 09:41:03;;;;;;;7.03;5.73;;;;;;;15.96;62.35;99723.03;5242206;56;1132794;-74
2022/04/24 09:46:09;;;;;;;6.40;3.87;;;;;;;16.03;60.03;99723.19;5242416;56;1132765;-73
2022/04/24 09:51:15;;;;;;;10.63;4.27;;;;;;;15.99;59.23;99724.03;5262591;56;21692;-73
2022/04/24 09:56:23;;;;;;;6.80;4.75;;;;;;;15.96;60.58;99719.03;5242463;56;1134770;-72
2022/04/24 10:01:29;;;;;;;7.77;5.77;;;;;;;16.14;61.87;99723.62;5242546;56;1136864;-73
2022/04/24 10:06:36;;;;;;;6.93;5.53;;;;;;;16.18;59.94;99720.95;5165847;56;1136891;-73
2022/04/24 10:11:42;;;;;;;9.33;4.97;;;;;;;16.28;60.94;99714.55;5165359;56;1136981;-79
2022/04/24 10:17:01;;;;;;;10.77;4.90;;;;;;;16.44;62.52;99712.62;5216608;56;1137188;-76
2022/04/24 10:22:36;;;;;;;9.13;5.63;;;;;;;16.51;61.04;99708.22;5250423;56;1139136;-76
2022/04/24 10:27:48;;;;;;;7.07;5.73;;;;;;;16.65;61.12;99708.52;5250409;56;1136992;-78
2022/04/24 10:33:18;;;;;;;7.77;5.30;;;;;;;16.92;59.97;99709.31;5250396;56;1136902;-74
2022/04/24 10:38:25;;;;;;;6.73;5.27;;;;;;;16.98;57.48;99705.91;5249284;56;1136991;-76
2022/04/24 10:43:56;;;;;;;8.20;5.77;;;;;;;17.07;58.87;99698.66;5250357;56;1136908;-79
2022/04/24 10:49:10;;;;;;;10.20;5.53;;;;;;;17.19;58.95;99698.55;5247460;56;1137109;-76
2022/04/24 10:54:18;;;;;;;12.73;5.63;;;;;;;17.31;59.08;99698.92;5250238;56;1139107;-74
2022/04/24 10:59:24;;;;;;;10.80;8.23;;;;;;;17.58;60.06;99690.27;5250245;56;1139041;-75
2022/04/24 11:04:34;;;;;;;14.63;7.43;;;;;;;17.67;59.69;99697.75;5250314;56;1138993;-75
2022/04/24 11:09:40;;;;;;;12.33;6.07;;;;;;;17.46;55.75;99700.61;5250320;56;1139017;-77
2022/04/24 11:14:46;;;;;;;9.17;6.63;;;;;;;17.46;57.93;99699.77;5134860;56;1139042;-76
2022/04/24 11:19:57;;;;;;;7.90;5.50;;;;;;;17.52;56.26;99701.72;5094428;57;1136919;-74
2022/04/24 11:25:05;;;;;;;5.77;5.17;;;;;;;17.58;55.85;99692.45;5119955;57;1135107;-79
2022/04/24 11:30:17;;;;;;;10.13;5.80;;;;;;;17.68;54.92;99684.70;5080227;57;1135030;-78
2022/04/24 11:35:24;;;;;;;40.25;27.77;;;;;;;17.75;55.47;99675.73;5093644;57;1136896;-74
2022/04/24 11:40:33;;;;;;;8.43;5.57;;;;;;;17.59;53.98;99683.41;5096925;56;1138987;-75
2022/04/24 11:51:03;;;;;;;7.93;6.90;;;;;;;17.26;55.92;99682.13;5080098;57;1134886;-79
2022/04/24 11:56:10;;;;;;;7.23;5.23;;;;;;;17.34;57.22;99676.68;5067048;58;1135059;-80
2022/04/24 12:01:18;;;;;;;7.87;5.53;;;;;;;17.51;56.44;99688.03;5080022;57;1135118;-73
2022/04/24 12:06:28;;;;;;;8.80;6.00;;;;;;;17.52;56.81;99685.69;5080008;57;1134893;-71
2022/04/24 12:11:38;;;;;;;7.03;4.37;;;;;;;17.37;54.76;99685.67;5119550;56;1132784;-79
2022/04/24 12:16:51;;;;;;;6.87;4.73;;;;;;;17.37;54.76;99685.67;5204215;56;21196;-74
2022/04/24 12:21:59;;;;;;;5.15;4.75;;;;;;;17.39;53.17;99673.47;5193591;56;1132961;-77
2022/04/24 12:27:04;;;;;;;12.13;4.87;;;;;;;17.34;55.65;99674.01;5161445;57;1136900;-77
2022/04/24 12:32:13;;;;;;;4.00;3.63;;;;;;;17.34;55.71;99656.63;5240350;56;1139159;-76
2022/04/24 12:37:31;;;;;;;9.20;4.57;;;;;;;17.40;56.10;99633.19;5234517;56;1137079;-74
2022/04/24 12:42:37;;;;;;;9.27;4.83;;;;;;;17.66;57.03;99618.03;5227983;56;1136993;-76
2022/04/24 12:47:43;;;;;;;6.70;6.10;;;;;;;17.93;57.29;99603.13;5203071;56;1137100;-71
2022/04/24 12:52:49;;;;;;;8.40;5.37;;;;;;;17.88;55.29;99601.51;5192111;56;1136913;-76
2022/04/24 12:57:55;;;;;;;9.53;5.50;;;;;;;17.70;56.79;99582.39;5165880;56;1136776;-74
2022/04/24 13:03:00;;;;;;;16.93;6.30;;;;;;;17.84;56.10;99586.88;5161357;56;1136928;-77
2022/04/24 13:08:10;;;;;;;8.37;5.40;;;;;;;17.78;56.71;99574.24;5161371;56;1139008;-73
2022/04/24 13:13:16;;;;;;;4.10;3.80;;;;;;;17.83;56.03;99568.66;5176208;56;1136953;-78
2022/04/24 13:18:22;;;;;;;8.43;5.57;;;;;;;17.92;53.88;99560.83;5240964;56;1137069;-76
2022/04/24 13:23:30;;;;;;;7.47;6.17;;;;;;;17.96;53.26;99555.93;5242691;56;1136925;-75
2022/04/24 13:28:36;;;;;;;5.53;4.53;;;;;;;17.98;52.96;99543.70;5231112;56;1136914;-74
2022/04/24 13:33:43;;;;;;;4.20;3.80;;;;;;;18.14;53.05;99546.13;5155841;57;1137053;-75
2022/04/24 13:38:49;;;;;;;7.10;4.10;;;;;;;18.27;52.73;99533.70;5155828;57;1136956;-77
2022/04/24 13:43:55;;;;;;;10.50;5.27;;;;;;;18.33;52.33;99531.28;5155975;57;1136915;-74
2022/04/24 13:49:01;;;;;;;7.23;4.50;;;;;;;18.39;51.53;99533.16;5156012;57;1139032;-74
2022/04/24 13:54:08;;;;;;;5.53;4.90;;;;;;;18.46;53.48;99525.52;5155811;57;1136939;-74
2022/04/24 13:59:13;;;;;;;6.67;4.83;;;;;;;18.62;52.29;99512.39;5156068;56;1136913;-73
2022/04/24 14:04:20;;;;;;;5.37;4.45;;;;;;;18.67;52.66;99514.45;5155854;56;1136873;-76
2022/04/24 14:09:25;;;;;;;6.17;4.80;;;;;;;18.61;52.68;99520.10;5195853;56;1137001;-75
2022/04/24 14:14:32;;;;;;;6.80;6.10;;;;;;;18.45;53.08;99523.86;5176935;56;1136899;-76
2022/04/24 14:19:39;;;;;;;8.10;5.33;;;;;;;18.30;50.25;99517.77;5161190;56;1137037;-78
2022/04/24 14:24:44;;;;;;;12.87;6.23;;;;;;;18.20;52.02;99525.27;5160642;56;1136887;-78
2022/04/24 14:29:50;;;;;;;10.10;4.53;;;;;;;18.13;50.32;99511.85;5161312;57;1139224;-74
2022/04/24 14:34:57;;;;;;;8.73;5.37;;;;;;;17.95;49.76;99504.78;5161304;57;1138839;-73
2022/04/24 14:40:06;;;;;;;4.63;4.27;;;;;;;17.85;50.75;99514.47;5188058;56;1136878;-77
2022/04/24 14:45:12;;;;;;;4.40;3.83;;;;;;;17.82;51.78;99502.80;5187686;56;1137116;-74
2022/04/24 14:55:44;;;;;;;5.20;4.70;;;;;;;17.69;51.12;99500.50;5161909;56;1134849;-81
2022/04/24 15:00:51;;;;;;;12.17;4.53;;;;;;;17.61;51.04;99504.08;5184935;56;1135070;-78
2022/04/24 15:05:56;;;;;;;5.93;5.10;;;;;;;17.55;51.43;99506.19;5183764;56;1136873;-75
2022/04/24 15:11:02;;;;;;;5.20;4.33;;;;;;;17.47;51.61;99503.10;5174956;56;1134815;-76
2022/04/24 15:16:08;;;;;;;14.13;5.40;;;;;;;17.43;51.27;99498.31;5194293;56;1134921;-78
2022/04/24 15:21:15;;;;;;;10.40;6.53;;;;;;;17.31;51.96;99507.83;5162662;57;1136917;-73
2022/04/24 15:26:22;;;;;;;8.60;5.97;;;;;;;17.33;52.08;99499.13;5150091;57;1136896;-74
2022/04/24 15:31:27;;;;;;;20.00;14.53;;;;;;;17.27;52.33;99499.35;5160390;57;1134858;-74
2022/04/24 15:36:33;;;;;;;8.17;6.00;;;;;;;17.16;51.75;99503.34;5140380;56;1138973;-79
2022/04/24 15:41:39;;;;;;;9.80;4.73;;;;;;;17.07;51.88;99513.81;5141445;57;1134803;-78
2022/04/24 15:46:45;;;;;;;16.40;5.23;;;;;;;16.99;51.92;99511.73;5100799;57;1134778;-74
2022/04/24 15:51:52;;;;;;;9.10;5.27;;;;;;;16.86;52.71;99509.70;5090549;56;1136899;-77
2022/04/24 15:56:58;;;;;;;9.07;4.33;;;;;;;16.78;52.82;99502.62;5077558;56;1134813;-74
2022/04/24 16:02:08;;;;;;;9.73;4.50;;;;;;;16.71;53.15;99500.36;5039849;58;1134825;-76
2022/04/24 16:07:14;;;;;;;20.07;12.83;;;;;;;16.64;53.31;99503.45;5061571;58;1134777;-76
2022/04/24 16:12:20;;;;;;;10.60;5.97;;;;;;;16.54;53.09;99498.33;5071605;57;1139111;-73
2022/04/24 16:17:26;;;;;;;6.97;4.87;;;;;;;16.47;53.26;99501.41;5064679;57;1135099;-71
2022/04/24 16:22:32;;;;;;;8.50;4.53;;;;;;;16.42;53.74;99502.45;5212629;56;1133197;-79
2022/04/24 16:27:39;;;;;;;7.23;4.80;;;;;;;16.38;53.58;99488.31;5213059;56;1136851;-77
2022/04/24 16:32:46;;;;;;;6.60;4.50;;;;;;;16.28;53.25;99492.58;5227538;56;1136759;-79
2022/04/24 16:37:57;;;;;;;8.50;4.83;;;;;;;16.14;53.62;99482.70;5225261;56;1136909;-76
2022/04/24 16:43:00;;;;;;;7.57;4.00;;;;;;;16.09;54.13;99476.56;5179962;56;1137314;-77
2022/04/24 16:48:06;;;;;;;12.77;10.30;;;;;;;16.03;54.39;99471.14;5192400;56;1136845;-75
2022/04/24 16:58:47;;;;;;;25.90;19.30;;;;;;;15.88;54.74;99471.09;5190780;56;1141313;-73
2022/04/24 17:03:53;;;;;;;5.23;4.73;;;;;;;15.76;55.11;99469.31;5181538;56;1141074;-74
2022/04/24 17:08:59;;;;;;;9.27;4.40;;;;;;;15.71;55.27;99469.05;5196643;56;1136955;-78
2022/04/24 17:14:05;;;;;;;13.90;4.80;;;;;;;15.66;55.65;99461.23;5210007;56;1136931;-77
2022/04/24 17:19:11;;;;;;;7.77;4.37;;;;;;;15.60;55.64;99469.43;5224300;56;1138968;-76
2022/04/24 17:24:17;;;;;;;3.80;3.43;;;;;;;15.54;55.82;99470.13;5214940;56;1136887;-75
2022/04/24 17:29:23;;;;;;;6.60;4.60;;;;;;;15.51;56.16;99465.64;5214779;56;1136878;-78
2022/04/24 17:34:29;;;;;;;5.50;3.77;;;;;;;15.44;56.36;99473.49;5214757;56;1136889;-79
2022/04/24 17:39:35;;;;;;;7.33;4.60;;;;;;;15.38;56.73;99475.05;5214798;56;1136991;-77
2022/04/24 17:44:41;;;;;;;7.60;4.73;;;;;;;15.32;56.88;99476.23;5214741;56;1136917;-78
2022/04/24 17:49:46;;;;;;;7.03;4.87;;;;;;;15.27;57.45;99483.44;5214924;56;1136903;-78
2022/04/24 17:54:52;;;;;;;6.57;4.30;;;;;;;15.17;57.95;99487.30;5214854;56;1137081;-78
2022/04/24 17:59:58;;;;;;;6.60;5.10;;;;;;;15.08;58.53;99493.17;5171465;56;1137034;-77
2022/04/24 18:05:13;;;;;;;5.93;4.50;;;;;;;15.00;59.07;99490.53;5139406;57;1136862;-69
2022/04/24 18:10:19;;;;;;;9.63;4.70;;;;;;;14.94;59.72;99507.21;5158544;56;1136992;-71
2022/04/24 18:15:26;;;;;;;9.47;5.43;;;;;;;14.88;60.43;99514.53;5139508;56;1136908;-70
2022/04/24 18:20:33;;;;;;;7.97;4.53;;;;;;;14.81;60.76;99524.22;5059583;58;1136950;-72
2022/04/24 18:25:39;;;;;;;7.33;4.47;;;;;;;14.75;61.40;99527.05;5196541;56;1136892;-70
2022/04/24 18:30:45;;;;;;;7.23;5.37;;;;;;;14.70;62.50;99538.70;5189918;56;1137104;-71
2022/04/24 18:40:58;;;;;;;16.00;5.23;;;;;;;14.37;64.94;99561.31;5105025;56;1136923;-70
2022/04/24 18:46:08;;;;;;;13.47;6.40;;;;;;;14.37;64.94;99561.31;5192670;56;1138961;-72
2022/04/24 18:51:14;;;;;;;10.67;5.93;;;;;;;14.33;64.98;99571.14;5038376;58;1139246;-71
2022/04/24 18:56:21;;;;;;;9.73;5.57;;;;;;;14.27;65.88;99577.94;5078384;58;1139013;-72
2022/04/24 19:01:28;;;;;;;9.10;5.47;;;;;;;14.18;66.88;99580.77;5185307;56;1136881;-71
2022/04/24 19:11:58;;;;;;;13.25;7.78;;;;;;;13.92;68.38;99592.84;5188447;56;1134797;-71
2022/04/24 19:17:04;;;;;;;9.90;6.97;;;;;;;13.80;68.10;99598.13;5166924;56;1137046;-73
2022/04/24 19:22:10;;;;;;;11.00;6.93;;;;;;;13.70;67.85;99592.97;5195753;56;1134964;-71
2022/04/24 19:27:16;;;;;;;6.60;4.97;;;;;;;13.59;68.06;99596.77;5194112;56;1136879;-72
2022/04/24 19:32:22;;;;;;;16.17;7.53;;;;;;;13.44;68.19;99605.50;5202401;56;1134808;-71
2022/04/24 19:37:28;;;;;;;13.60;6.80;;;;;;;13.31;68.71;99604.59;5191360;56;1136913;-72
2022/04/24 19:42:35;;;;;;;6.90;5.53;;;;;;;13.17;68.17;99610.00;5200762;56;1136950;-70
2022/04/24 19:53:06;;;;;;;9.47;5.30;;;;;;;12.93;68.93;99599.22;5206401;56;1134881;-70
2022/04/24 19:58:12;;;;;;;10.63;6.67;;;;;;;12.78;68.76;99609.56;5197980;56;1132750;-71
2022/04/24 20:03:18;;;;;;;5.97;5.23;;;;;;;12.67;69.12;99611.16;5193455;56;1134747;-71
2022/04/24 20:08:24;;;;;;;10.63;6.50;;;;;;;12.64;69.15;99614.94;5064599;58;1136884;-70
2022/04/24 20:13:30;;;;;;;13.95;6.08;;;;;;;12.54;69.48;99613.34;5211560;56;1138949;-71
2022/04/24 20:18:37;;;;;;;7.20;5.10;;;;;;;12.41;69.53;99612.91;5190661;56;1139271;-70
2022/04/24 20:23:44;;;;;;;9.90;5.47;;;;;;;12.21;70.23;99609.11;5156088;56;1136992;-70
2022/04/24 20:28:51;;;;;;;10.80;6.83;;;;;;;12.05;70.99;99611.60;5153522;56;1136889;-72
2022/04/24 20:33:57;;;;;;;10.97;7.10;;;;;;;11.98;70.90;99612.69;5126107;56;1138974;-71
2022/04/24 20:39:10;;;;;;;13.90;7.77;;;;;;;11.92;71.42;99609.30;5131766;57;1139026;-72
2022/04/24 20:44:14;;;;;;;9.13;6.87;;;;;;;11.93;71.69;99616.75;5173368;56;1139233;-71
2022/04/24 20:49:17;;;;;;;11.33;6.57;;;;;;;11.89;72.30;99622.03;5119124;57;1136748;-72
2022/04/24 20:54:23;;;;;;;11.20;7.20;;;;;;;11.79;72.61;99624.72;5125813;57;1139037;-72
2022/04/24 20:59:28;;;;;;;8.57;6.63;;;;;;;11.64;72.90;99628.81;5123576;57;1139564;-72
2022/04/24 21:04:34;;;;;;;19.17;6.87;;;;;;;11.54;73.86;99628.88;5106792;57;1137285;-71
2022/04/24 21:09:41;;;;;;;16.50;6.87;;;;;;;11.42;74.40;99631.38;5110196;57;1139040;-71
2022/04/24 21:14:47;;;;;;;15.18;5.65;;;;;;;11.30;75.18;99621.96;5119959;56;1139226;-71
2022/04/24 21:19:53;;;;;;;11.50;6.03;;;;;;;11.18;74.54;99635.00;5113298;57;1139145;-71
2022/04/24 21:25:00;;;;;;;11.70;6.10;;;;;;;10.98;74.95;99638.70;5091035;57;1139012;-72
2022/04/24 21:30:09;;;;;;;8.00;5.57;;;;;;;10.86;75.75;99634.87;5092406;56;1138967;-71
2022/04/24 21:35:14;;;;;;;14.80;5.83;;;;;;;10.77;75.47;99640.20;5089324;57;1136855;-70
2022/04/24 21:40:19;;;;;;;8.47;5.13;;;;;;;10.59;76.27;99646.68;5119350;56;1138985;-71
2022/04/24 21:45:25;;;;;;;10.90;5.60;;;;;;;10.50;76.31;99643.08;5174033;56;1137173;-71
2022/04/24 21:50:32;;;;;;;10.13;5.33;;;;;;;10.46;76.43;99640.84;5168450;56;1138989;-68
2022/04/24 21:55:39;;;;;;;12.07;4.27;;;;;;;10.48;76.62;99654.28;5178042;56;1138997;-68
2022/04/24 22:00:55;;;;;;;9.03;4.60;;;;;;;10.42;76.38;99658.79;5118019;56;1139029;-70
2022/04/24 22:06:01;;;;;;;8.57;4.40;;;;;;;10.23;76.54;99665.41;5094276;57;1137411;-69
2022/04/24 22:11:06;;;;;;;9.50;4.53;;;;;;;10.09;76.86;99664.42;5128738;56;1137094;-69
2022/04/24 22:16:12;;;;;;;7.43;4.50;;;;;;;10.01;77.00;99669.09;5162730;56;1137162;-69
2022/04/24 22:26:42;;;;;;;9.40;5.07;;;;;;;9.92;77.84;99667.75;5157793;57;1135039;-70
2022/04/24 22:31:49;;;;;;;6.03;4.70;;;;;;;9.96;77.50;99674.41;5131120;57;1134826;-70
2022/04/24 22:36:55;;;;;;;8.33;5.27;;;;;;;10.02;77.26;99673.88;5170451;56;1134867;-71
2022/04/24 22:42:01;;;;;;;7.13;5.07;;;;;;;10.13;77.51;99677.23;5205872;56;1136921;-72
2022/04/24 22:47:09;;;;;;;8.00;5.17;;;;;;;10.17;77.31;99675.16;5204775;56;1137199;-71
2022/04/24 22:52:14;;;;;;;9.05;5.50;;;;;;;10.11;77.16;99677.02;5201120;56;1134844;-72
2022/04/24 22:57:20;;;;;;;8.57;5.13;;;;;;;9.94;77.67;99671.91;5201054;56;1134884;-72
2022/04/24 23:02:26;;;;;;;8.50;5.33;;;;;;;9.87;77.66;99685.32;5204791;56;1132539;-70
2022/04/24 23:07:32;;;;;;;11.07;6.10;;;;;;;9.86;77.83;99679.69;5202699;56;1132766;-71
2022/04/24 23:12:38;;;;;;;15.00;5.07;;;;;;;9.80;78.13;99678.41;5208590;56;1134828;-71
2022/04/24 23:23:07;;;;;;;8.38;6.22;;;;;;;9.86;78.67;99681.01;5220060;56;1132857;-70
2022/04/24 23:28:13;;;;;;;8.80;6.00;;;;;;;9.73;78.94;99676.45;5242851;56;1132870;-72
2022/04/24 23:33:19;;;;;;;9.77;5.23;;;;;;;9.69;79.11;99682.96;5242852;56;1132776;-71
2022/04/24 23:38:25;;;;;;;14.03;6.63;;;;;;;9.60;79.07;99686.41;5242831;56;1132883;-71
2022/04/24 23:43:31;;;;;;;8.13;5.17;;;;;;;9.52;79.28;99687.90;5242861;56;1134749;-69
2022/04/24 23:48:38;;;;;;;8.97;5.03;;;;;;;9.52;79.46;99696.30;5242846;56;1132734;-70
2022/04/24 23:53:44;;;;;;;8.07;5.70;;;;;;;9.50;79.31;99694.27;5242813;56;1132990;-71
2022/04/24 23:58:49;;;;;;;8.33;5.00;;;;;;;9.38;79.83;99693.53;5243064;56;1132832;-70
